Gwen Drez — FZYB — position and weather

sailwx.info

Track history (hours):
 
Tides and Currents Weather Stations Pressure Air Temp Water Temp Dewpoint Dewpoint Depression Visibility Wind Speed Wind Dir Waves Ship Positions

Oceanographic research ship Gwen Drez (France)

Detailed information on ship capabilities available from University of Delaware's Ocean Information Center.

Last reported at 2014-Nov-01 18:33 UTC. Time now 2017-Mar-26 01:42 UTC.
Position N 47°51' W 003°56'.
Warning: this ship's position is years out of date!

Length 25 m; beam 7 m.

MMSI: 227269000.

Date/timePositionNaut miles runAvg speedWind from/ knotsBaromVisibWave heightAir tempDewpointWater temp
2014-Nov-01 18:33N 47°51' W 003°56'20 6.6
2014-Nov-01 15:33N 47°49' W 004°26'8 7.8
2014-Nov-01 14:33N 47°54' W 004°34'8 8.0
2014-Nov-01 13:33N 47°60' W 004°42'8 8.1
2014-Nov-01 12:33N 48°07' W 004°47'8 7.7
2014-Nov-01 11:33N 48°15' W 004°48'7 6.6
2014-Nov-01 10:33N 48°22' W 004°49'  
2014-Oct-28 15:09N 49°31' W 000°17'6 8.9
2014-Oct-28 14:27N 49°28' W 000°09'5 5.5
2014-Oct-28 13:29N 49°26' W 000°02'2 2.0
2014-Oct-28 12:32N 49°27' E 000°01'2 1.7
2014-Oct-28 11:33N 49°26' W 000°01'3 2.8
2014-Oct-28 10:33N 49°23' W 000°00'2 1.8
2014-Oct-28 09:27N 49°23' W 000°03'3 3.6
2014-Oct-28 08:33N 49°22' W 000°08'6 5.9
2014-Oct-28 07:33N 49°26' W 000°02'6 4.8
2014-Oct-28 06:12N 49°29' E 000°07'0 0.6
2014-Oct-28 05:33N 49°29' E 000°07'0 0.0
2014-Oct-28 04:29N 49°29' E 000°07'0 0.0
2014-Oct-28 03:28N 49°29' E 000°07'0 0.0
2014-Oct-28 02:28N 49°29' E 000°07'0 0.0
2014-Oct-28 01:27N 49°29' E 000°07'0 0.0
2014-Oct-28 00:27N 49°29' E 000°07'0 0.0
2014-Oct-27 23:32N 49°29' E 000°07'0 0.0
2014-Oct-27 21:32N 49°29' E 000°07'0 0.0
2014-Oct-27 20:28N 49°29' E 000°07'0 0.0
2014-Oct-27 18:33N 49°29' E 000°07'0 0.0
2014-Oct-27 17:30N 49°29' E 000°07'0 0.0
2014-Oct-27 16:17N 49°29' E 000°07'0 0.0
2014-Oct-27 15:32N 49°29' E 000°07'0 0.0
2014-Oct-27 14:32N 49°29' E 000°07'0 0.0
2014-Oct-27 13:31N 49°29' E 000°07'0 0.0
2014-Oct-27 12:31N 49°29' E 000°07'0 0.0
2014-Oct-27 11:33N 49°29' E 000°07'0 0.0
2014-Oct-27 10:30N 49°29' E 000°07'0 0.0
2014-Oct-27 09:29N 49°29' E 000°07'0 0.0
2014-Oct-27 08:32N 49°29' E 000°07'0 0.0
2014-Oct-27 07:28N 49°29' E 000°07'0 0.0
2014-Oct-27 06:31N 49°29' E 000°07'0 0.0
2014-Oct-27 05:28N 49°29' E 000°07'0 0.0
2014-Oct-27 04:33N 49°29' E 000°07'0 0.0
2014-Oct-27 03:33N 49°29' E 000°07'0 0.0
2014-Oct-27 02:32N 49°29' E 000°07'0 0.0
2014-Oct-27 01:32N 49°29' E 000°07'0 0.0
2014-Oct-27 00:28N 49°29' E 000°07'0 0.0
2014-Oct-26 23:28N 49°29' E 000°07'0 0.0
2014-Oct-26 22:31N 49°29' E 000°07'0 0.0
2014-Oct-26 21:30N 49°29' E 000°07'0 0.0
2014-Oct-26 20:30N 49°29' E 000°07'0 0.0
2014-Oct-26 19:32N 49°29' E 000°07'0 0.0
2014-Oct-26 18:32N 49°29' E 000°07'0 0.0
2014-Oct-26 17:31N 49°29' E 000°07'0 0.0
2014-Oct-26 16:31N 49°29' E 000°07'0 0.0
2014-Oct-26 15:34N 49°29' E 000°07'0 0.0
2014-Oct-26 14:33N 49°29' E 000°07'0 0.0
2014-Oct-26 13:33N 49°29' E 000°07'0 0.0
2014-Oct-26 12:32N 49°29' E 000°07'0 0.0
2014-Oct-26 11:32N 49°29' E 000°07'0 0.0
2014-Oct-26 10:33N 49°29' E 000°07'4 3.6
2014-Oct-26 09:33N 49°31' E 000°03'5 5.2
2014-Oct-26 08:33N 49°36' E 000°05'1 0.8
2014-Oct-26 07:33N 49°36' E 000°04'1 1.1
2014-Oct-26 06:33N 49°37' E 000°03'4 3.3
2014-Oct-26 05:24N 49°36' W 000°02'3 2.7
2014-Oct-26 04:12N 49°39' W 000°02'2 2.7
2014-Oct-26 03:26N 49°37' W 000°03'1 1.0
2014-Oct-26 02:34N 49°36' W 000°03'2 2.2
2014-Oct-26 01:28N 49°39' W 000°03'3 1.3
2014-Oct-25 23:28N 49°36' W 000°01'1 0.4
2014-Oct-25 21:26N 49°37' W 000°02'1 1.1
2014-Oct-25 20:31N 49°37' W 000°04'58 4.1
2014-Oct-25 06:26N 50°33' E 000°22'9 0.7
2014-Oct-24 16:33N 50°35' E 000°08'3 3.1
2014-Oct-24 15:34N 50°38' E 000°06'22 5.4
2014-Oct-24 11:32N 50°34' W 000°28'1 1.3
2014-Oct-24 10:33N 50°35' W 000°26'6 5.9
2014-Oct-24 09:34N 50°40' W 000°22'6 6.3
2014-Oct-24 08:33N 50°45' W 000°17'6 0.5
2014-Oct-23 20:22N 50°39' W 000°16'8 9.9
2014-Oct-23 19:33N 50°36' W 000°28'22 3.1
2014-Oct-23 12:31N 50°29' W 001°01'12 2.9
2014-Oct-23 08:31N 50°31' W 000°43'2 0.3
2014-Oct-23 03:29N 50°32' W 000°46'  
Track history (hours):
 
Tides and Currents Weather Stations Pressure Air Temp Water Temp Dewpoint Dewpoint Depression Visibility Wind Speed Wind Dir Waves Ship Positions

Oceanographic research ship Gwen Drez (France)

Detailed information on ship capabilities available from University of Delaware's Ocean Information Center.

Last reported at 2014-Nov-01 18:33 UTC. Time now 2017-Mar-26 01:42 UTC.
Position N 47°51' W 003°56'.
Warning: this ship's position is years out of date!

Length 25 m; beam 7 m.

MMSI: 227269000.

Date/timePositionNaut miles runAvg speedWind from/ knotsBaromVisibWave heightAir tempDewpointWater temp
2014-Nov-01 18:33N 47°51' W 003°56'20 6.6
2014-Nov-01 15:33N 47°49' W 004°26'8 7.8
2014-Nov-01 14:33N 47°54' W 004°34'8 8.0
2014-Nov-01 13:33N 47°60' W 004°42'8 8.1
2014-Nov-01 12:33N 48°07' W 004°47'8 7.7
2014-Nov-01 11:33N 48°15' W 004°48'7 6.6
2014-Nov-01 10:33N 48°22' W 004°49'  
2014-Oct-28 15:09N 49°31' W 000°17'6 8.9
2014-Oct-28 14:27N 49°28' W 000°09'5 5.5
2014-Oct-28 13:29N 49°26' W 000°02'2 2.0
2014-Oct-28 12:32N 49°27' E 000°01'2 1.7
2014-Oct-28 11:33N 49°26' W 000°01'3 2.8
2014-Oct-28 10:33N 49°23' W 000°00'2 1.8
2014-Oct-28 09:27N 49°23' W 000°03'3 3.6
2014-Oct-28 08:33N 49°22' W 000°08'6 5.9
2014-Oct-28 07:33N 49°26' W 000°02'6 4.8
2014-Oct-28 06:12N 49°29' E 000°07'0 0.6
2014-Oct-28 05:33N 49°29' E 000°07'0 0.0
2014-Oct-28 04:29N 49°29' E 000°07'0 0.0
2014-Oct-28 03:28N 49°29' E 000°07'0 0.0
2014-Oct-28 02:28N 49°29' E 000°07'0 0.0
2014-Oct-28 01:27N 49°29' E 000°07'0 0.0
2014-Oct-28 00:27N 49°29' E 000°07'0 0.0
2014-Oct-27 23:32N 49°29' E 000°07'0 0.0
2014-Oct-27 21:32N 49°29' E 000°07'0 0.0
2014-Oct-27 20:28N 49°29' E 000°07'0 0.0
2014-Oct-27 18:33N 49°29' E 000°07'0 0.0
2014-Oct-27 17:30N 49°29' E 000°07'0 0.0
2014-Oct-27 16:17N 49°29' E 000°07'0 0.0
2014-Oct-27 15:32N 49°29' E 000°07'0 0.0
2014-Oct-27 14:32N 49°29' E 000°07'0 0.0
2014-Oct-27 13:31N 49°29' E 000°07'0 0.0
2014-Oct-27 12:31N 49°29' E 000°07'0 0.0
2014-Oct-27 11:33N 49°29' E 000°07'0 0.0
2014-Oct-27 10:30N 49°29' E 000°07'0 0.0
2014-Oct-27 09:29N 49°29' E 000°07'0 0.0
2014-Oct-27 08:32N 49°29' E 000°07'0 0.0
2014-Oct-27 07:28N 49°29' E 000°07'0 0.0
2014-Oct-27 06:31N 49°29' E 000°07'0 0.0
2014-Oct-27 05:28N 49°29' E 000°07'0 0.0
2014-Oct-27 04:33N 49°29' E 000°07'0 0.0
2014-Oct-27 03:33N 49°29' E 000°07'0 0.0
2014-Oct-27 02:32N 49°29' E 000°07'0 0.0
2014-Oct-27 01:32N 49°29' E 000°07'0 0.0
2014-Oct-27 00:28N 49°29' E 000°07'0 0.0
2014-Oct-26 23:28N 49°29' E 000°07'0 0.0
2014-Oct-26 22:31N 49°29' E 000°07'0 0.0
2014-Oct-26 21:30N 49°29' E 000°07'0 0.0
2014-Oct-26 20:30N 49°29' E 000°07'0 0.0
2014-Oct-26 19:32N 49°29' E 000°07'0 0.0
2014-Oct-26 18:32N 49°29' E 000°07'0 0.0
2014-Oct-26 17:31N 49°29' E 000°07'0 0.0
2014-Oct-26 16:31N 49°29' E 000°07'0 0.0
2014-Oct-26 15:34N 49°29' E 000°07'0 0.0
2014-Oct-26 14:33N 49°29' E 000°07'0 0.0
2014-Oct-26 13:33N 49°29' E 000°07'0 0.0
2014-Oct-26 12:32N 49°29' E 000°07'0 0.0
2014-Oct-26 11:32N 49°29' E 000°07'0 0.0
2014-Oct-26 10:33N 49°29' E 000°07'4 3.6
2014-Oct-26 09:33N 49°31' E 000°03'5 5.2
2014-Oct-26 08:33N 49°36' E 000°05'1 0.8
2014-Oct-26 07:33N 49°36' E 000°04'1 1.1
2014-Oct-26 06:33N 49°37' E 000°03'4 3.3
2014-Oct-26 05:24N 49°36' W 000°02'3 2.7
2014-Oct-26 04:12N 49°39' W 000°02'2 2.7
2014-Oct-26 03:26N 49°37' W 000°03'1 1.0
2014-Oct-26 02:34N 49°36' W 000°03'2 2.2
2014-Oct-26 01:28N 49°39' W 000°03'3 1.3
2014-Oct-25 23:28N 49°36' W 000°01'1 0.4
2014-Oct-25 21:26N 49°37' W 000°02'1 1.1
2014-Oct-25 20:31N 49°37' W 000°04'58 4.1
2014-Oct-25 06:26N 50°33' E 000°22'9 0.7
2014-Oct-24 16:33N 50°35' E 000°08'3 3.1
2014-Oct-24 15:34N 50°38' E 000°06'22 5.4
2014-Oct-24 11:32N 50°34' W 000°28'1 1.3
2014-Oct-24 10:33N 50°35' W 000°26'6 5.9
2014-Oct-24 09:34N 50°40' W 000°22'6 6.3
2014-Oct-24 08:33N 50°45' W 000°17'6 0.5
2014-Oct-23 20:22N 50°39' W 000°16'8 9.9
2014-Oct-23 19:33N 50°36' W 000°28'22 3.1
2014-Oct-23 12:31N 50°29' W 001°01'12 2.9
2014-Oct-23 08:31N 50°31' W 000°43'2 0.3
2014-Oct-23 03:29N 50°32' W 000°46'  

Dump ship's entire track history